Terminal Aerodrome Forecast
Issued by NWS Sterling, VA

Current Version | Previous Version | Text Only | Print | Product List | Glossary Off
Versions: 1 2 3 4 5 6 7 8 9 10 11 12 13 14 15 16 17 18

404
FTUS41 KLWX 292328
TAFMRB
TAF
KMRB 292328Z 3000/3024 07004KT 5SM -DZ BR OVC015
     FM300100 VRB03KT 3SM -DZ BR BKN008 OVC015
     FM300600 VRB03KT 2SM -DZ BR BKN005 OVC008
     FM301300 10005KT P6SM BKN015 OVC025
     FM301800 13005KT P6SM BKN025 OVC050
     FM302100 14006KT 5SM -RA BKN015 OVC025=

USA.gov is the U.S. government's official web portal to all federal, state and local government web resources and services.